createdAt,value
2019-03-01T00:01:22.581Z,100756.75
2019-03-01T00:03:54.074Z,100757.86
2019-03-01T00:06:27.166Z,100769.16
2019-03-01T00:09:07.430Z,100757.06
2019-03-01T00:11:47.981Z,100764.16
2019-03-01T00:14:22.324Z,100759.48
2019-03-01T00:17:22.534Z,100750.28
2019-03-01T00:20:28.843Z,100756.00
2019-03-01T00:23:03.233Z,100759.46
2019-03-01T00:25:53.077Z,100764.23
2019-03-01T00:28:30.513Z,100764.16
2019-03-01T00:31:11.176Z,100760.75
2019-03-01T00:33:51.546Z,100752.20
2019-03-01T00:36:51.800Z,100756.02
2019-03-01T00:39:32.299Z,100754.55
2019-03-01T00:42:20.381Z,100754.39
2019-03-01T00:44:48.950Z,100755.91
2019-03-01T00:47:17.389Z,100754.64
2019-03-01T00:49:45.872Z,100746.78
2019-03-01T00:52:14.418Z,100738.16
2019-03-01T00:54:42.898Z,100732.31
2019-03-01T00:57:11.362Z,100739.50
2019-03-01T00:59:39.827Z,100731.03
2019-03-01T01:02:08.299Z,100728.48
2019-03-01T01:04:36.730Z,100740.77
2019-03-01T01:07:05.212Z,100733.18
2019-03-01T01:09:33.636Z,100737.52
2019-03-01T01:12:02.246Z,100725.27
2019-03-01T01:14:30.708Z,100722.96
2019-03-01T01:16:59.164Z,100724.62
2019-03-01T01:19:27.662Z,100725.81
2019-03-01T01:21:56.144Z,100725.95
2019-03-01T01:24:24.590Z,100726.70
2019-03-01T01:26:53.028Z,100718.48
2019-03-01T01:29:21.503Z,100730.66
2019-03-01T01:31:49.952Z,100733.03
2019-03-01T01:34:18.398Z,100730.95
2019-03-01T01:36:46.864Z,100729.16
2019-03-01T01:39:16.364Z,100722.22
2019-03-01T01:41:44.827Z,100714.94
2019-03-01T01:44:13.295Z,100713.36
2019-03-01T01:46:41.754Z,100713.69
2019-03-01T01:49:10.196Z,100705.27
2019-03-01T01:51:38.672Z,100701.66
2019-03-01T01:54:07.142Z,100701.20
2019-03-01T01:56:35.603Z,100689.85
2019-03-01T01:59:04.062Z,100674.37
2019-03-01T02:01:32.548Z,100657.94
2019-03-01T02:04:01.000Z,100657.63
2019-03-01T02:06:29.604Z,100647.55
2019-03-01T02:08:58.070Z,100651.57
2019-03-01T02:11:26.516Z,100652.95
2019-03-01T02:13:54.966Z,100652.16
2019-03-01T02:16:23.428Z,100654.78
2019-03-01T02:18:57.827Z,100651.34
2019-03-01T02:21:22.052Z,100648.42
2019-03-01T02:23:50.520Z,100653.59
2019-03-01T02:26:18.968Z,100654.05
2019-03-01T02:28:47.432Z,100653.89
2019-03-01T02:31:16.059Z,100645.22
2019-03-01T02:33:44.542Z,100653.28
2019-03-01T02:36:13.002Z,100649.38
2019-03-01T02:38:41.464Z,100648.44
2019-03-01T02:41:09.946Z,100641.34
2019-03-01T02:43:38.385Z,100642.47
2019-03-01T02:46:06.808Z,100636.53
2019-03-01T02:48:35.287Z,100649.58
2019-03-01T02:51:03.765Z,100642.41
2019-03-01T02:53:32.202Z,100640.37
2019-03-01T02:56:00.652Z,100635.78
2019-03-01T02:58:29.094Z,100649.41
2019-03-01T03:00:57.556Z,100645.05
2019-03-01T03:03:26.001Z,100638.42
2019-03-01T03:05:59.235Z,100631.22
2019-03-01T03:08:27.681Z,100639.16
2019-03-01T03:10:56.168Z,100630.59
2019-03-01T03:13:24.609Z,100646.66
2019-03-01T03:15:54.244Z,100644.25
2019-03-01T03:18:23.154Z,100644.87
2019-03-01T03:20:51.627Z,100641.32
2019-03-01T03:23:20.101Z,100644.91
2019-03-01T03:25:48.533Z,100638.09
2019-03-01T03:28:16.992Z,100642.94
2019-03-01T03:30:45.447Z,100638.09
2019-03-01T03:33:13.913Z,100635.84
2019-03-01T03:35:43.719Z,100641.41
2019-03-01T03:38:12.158Z,100641.59
2019-03-01T03:40:40.619Z,100639.70
2019-03-01T03:43:09.070Z,100633.81
2019-03-01T03:45:37.536Z,100631.65
2019-03-01T03:48:05.974Z,100635.05
2019-03-01T03:50:34.715Z,100630.45
2019-03-01T03:53:03.227Z,100634.59
2019-03-01T03:55:31.622Z,100629.94
2019-03-01T03:58:00.085Z,100634.05
2019-03-01T04:00:28.535Z,100617.61
2019-03-01T04:02:56.983Z,100623.40
2019-03-01T04:05:26.947Z,100617.27
2019-03-01T04:07:55.389Z,100619.53
2019-03-01T04:10:23.867Z,100604.89
2019-03-01T04:12:52.299Z,100602.45
2019-03-01T04:15:20.803Z,100592.55
2019-03-01T04:17:49.213Z,100587.98
2019-03-01T04:20:18.751Z,100589.78
2019-03-01T04:22:47.241Z,100580.80
2019-03-01T04:25:15.682Z,100575.09
2019-03-01T04:27:44.157Z,100578.14
2019-03-01T04:30:14.973Z,100582.83
2019-03-01T04:32:43.433Z,100570.39
2019-03-01T04:35:12.041Z,100567.98
2019-03-01T04:37:40.488Z,100567.02
2019-03-01T04:40:11.297Z,100561.29
2019-03-01T04:42:39.740Z,100558.06
2019-03-01T04:45:10.860Z,100560.66
2019-03-01T04:47:39.335Z,100553.22
2019-03-01T04:50:10.380Z,100553.69
2019-03-01T04:52:39.042Z,100552.23
2019-03-01T04:55:10.302Z,100541.80
2019-03-01T04:57:38.756Z,100542.37
2019-03-01T05:00:10.270Z,100536.48
2019-03-01T05:02:38.709Z,100527.01
2019-03-01T05:05:07.264Z,100526.88
2019-03-01T05:07:35.720Z,100520.56
2019-03-01T05:10:06.309Z,100525.06
2019-03-01T05:12:34.782Z,100528.41
2019-03-01T05:15:03.626Z,100527.17
2019-03-01T05:17:32.190Z,100524.87
2019-03-01T05:20:01.007Z,100523.99
2019-03-01T05:22:29.455Z,100521.02
2019-03-01T05:24:57.907Z,100531.81
2019-03-01T05:27:26.370Z,100532.20
2019-03-01T05:29:54.861Z,100538.42
2019-03-01T05:32:23.305Z,100543.14
2019-03-01T05:34:51.789Z,100539.54
2019-03-01T05:37:20.243Z,100542.76
2019-03-01T05:39:48.678Z,100540.47
2019-03-01T05:42:17.145Z,100548.07
2019-03-01T05:44:45.582Z,100547.95
2019-03-01T05:47:14.044Z,100547.31
2019-03-01T05:49:42.524Z,100552.34
2019-03-01T05:52:11.006Z,100543.63
2019-03-01T05:54:39.459Z,100547.12
2019-03-01T05:57:07.897Z,100535.91
2019-03-01T05:59:36.371Z,100537.10
2019-03-01T06:02:07.889Z,100542.16
2019-03-01T06:04:42.222Z,100543.03
2019-03-01T06:07:28.689Z,100548.26
2019-03-01T06:10:00.356Z,100538.66
2019-03-01T06:12:34.511Z,100538.80
2019-03-01T06:15:34.291Z,100538.78
2019-03-01T06:18:38.868Z,100530.58
2019-03-01T06:21:29.624Z,100531.31
2019-03-01T06:24:03.665Z,100534.20
2019-03-01T06:26:47.261Z,100535.49
2019-03-01T06:29:24.331Z,100533.45
2019-03-01T06:32:13.802Z,100538.61
2019-03-01T06:34:57.054Z,100536.31
2019-03-01T06:37:46.364Z,100541.20
2019-03-01T06:40:30.892Z,100546.91
2019-03-01T06:43:10.734Z,100548.26
2019-03-01T06:45:48.367Z,100554.48
2019-03-01T06:48:18.499Z,100567.33
2019-03-01T06:50:48.653Z,100561.02
2019-03-01T06:53:17.119Z,100558.80
2019-03-01T06:55:45.657Z,100561.43
2019-03-01T06:58:17.566Z,100573.34
2019-03-01T07:00:50.376Z,100574.07
2019-03-01T07:03:17.883Z,100577.05
2019-03-01T07:05:46.407Z,100576.06
2019-03-01T07:08:14.926Z,100574.96
2019-03-01T07:10:43.379Z,100575.27
2019-03-01T07:13:11.859Z,100575.73
2019-03-01T07:15:40.317Z,100562.64
2019-03-01T07:18:08.811Z,100562.42
2019-03-01T07:20:37.266Z,100571.03
2019-03-01T07:23:05.833Z,100566.51
2019-03-01T07:25:34.301Z,100567.86
2019-03-01T07:28:02.786Z,100569.91
2019-03-01T07:30:31.251Z,100567.97
2019-03-01T07:32:59.699Z,100568.73
2019-03-01T07:35:28.181Z,100569.33
2019-03-01T07:37:56.629Z,100571.14
2019-03-01T07:40:25.088Z,100571.78
2019-03-01T07:42:53.587Z,100571.86
2019-03-01T07:45:22.121Z,100573.56
2019-03-01T07:47:50.626Z,100575.95
2019-03-01T07:50:19.070Z,100572.60
2019-03-01T07:52:47.543Z,100582.23
2019-03-01T07:55:16.019Z,100577.70
2019-03-01T07:57:46.555Z,100575.41
2019-03-01T08:00:17.905Z,100570.41
2019-03-01T08:02:46.338Z,100570.13
2019-03-01T08:05:16.399Z,100571.67
2019-03-01T08:07:55.413Z,100569.61
2019-03-01T08:10:20.922Z,100570.16
2019-03-01T08:12:47.461Z,100576.86
2019-03-01T08:15:17.403Z,100578.45
2019-03-01T08:17:45.887Z,100569.59
2019-03-01T08:20:15.968Z,100565.68
2019-03-01T08:22:48.559Z,100571.63
2019-03-01T08:25:14.718Z,100570.29
2019-03-01T08:27:46.314Z,100570.84
2019-03-01T08:30:15.672Z,100570.19
2019-03-01T08:32:44.334Z,100564.20
2019-03-01T08:35:14.039Z,100570.84
2019-03-01T08:37:42.514Z,100567.44
2019-03-01T08:40:14.652Z,100573.77
2019-03-01T08:42:43.977Z,100569.45
2019-03-01T08:45:15.101Z,100568.73
2019-03-01T08:47:43.567Z,100569.94
2019-03-01T08:50:16.509Z,100567.27
2019-03-01T08:52:45.813Z,100566.05
2019-03-01T08:55:16.863Z,100571.66
2019-03-01T08:57:45.299Z,100571.26
2019-03-01T09:00:16.736Z,100577.56
2019-03-01T09:02:45.202Z,100578.62
2019-03-01T09:05:14.126Z,100577.84
2019-03-01T09:07:42.597Z,100579.08
2019-03-01T09:10:14.064Z,100588.94
2019-03-01T09:12:42.522Z,100587.86
2019-03-01T09:15:13.343Z,100593.94
2019-03-01T09:17:41.864Z,100596.36
2019-03-01T09:20:12.567Z,100592.20
2019-03-01T09:22:41.013Z,100595.91
2019-03-01T09:25:11.721Z,100598.98
2019-03-01T09:27:40.209Z,100602.02
2019-03-01T09:30:17.590Z,100597.08
2019-03-01T09:32:46.126Z,100600.19
2019-03-01T09:35:19.718Z,100591.77
2019-03-01T09:37:48.158Z,100589.91
2019-03-01T09:40:16.611Z,100591.77
2019-03-01T09:42:47.455Z,100585.42
2019-03-01T09:45:15.292Z,100590.15
2019-03-01T09:47:43.743Z,100594.04
2019-03-01T09:50:12.767Z,100598.52
2019-03-01T09:52:42.877Z,100599.78
2019-03-01T09:55:12.651Z,100597.77
2019-03-01T09:57:41.144Z,100593.83
2019-03-01T10:00:27.880Z,100599.92
2019-03-01T10:02:58.453Z,100601.44
2019-03-01T10:05:26.510Z,100599.37
2019-03-01T10:07:54.991Z,100592.42
2019-03-01T10:10:29.237Z,100590.61
2019-03-01T10:12:57.696Z,100593.72
2019-03-01T10:15:26.215Z,100597.92
2019-03-01T10:17:54.731Z,100596.67
2019-03-01T10:20:23.240Z,100593.25
2019-03-01T10:22:51.699Z,100600.11
2019-03-01T10:25:21.167Z,100595.20
2019-03-01T10:27:49.828Z,100595.86
2019-03-01T10:30:21.346Z,100600.67
2019-03-01T10:32:49.867Z,100601.23
2019-03-01T10:35:18.502Z,100601.10
2019-03-01T10:37:47.429Z,100602.58
2019-03-01T10:40:23.311Z,100607.83
2019-03-01T10:42:51.820Z,100609.61
2019-03-01T10:45:25.291Z,100615.23
2019-03-01T10:47:53.782Z,100615.20
2019-03-01T10:50:22.247Z,100611.59
2019-03-01T10:52:50.691Z,100616.53
2019-03-01T10:55:20.106Z,100616.50
2019-03-01T10:57:48.686Z,100618.05
2019-03-01T11:00:26.186Z,100630.53
2019-03-01T11:02:55.477Z,100628.87
2019-03-01T11:05:24.319Z,100633.06
2019-03-01T11:07:54.010Z,100631.91
2019-03-01T11:10:25.443Z,100635.65
2019-03-01T11:12:53.896Z,100644.41
2019-03-01T11:15:22.543Z,100639.84
2019-03-01T11:17:50.993Z,100646.19
2019-03-01T11:20:20.769Z,100653.43
2019-03-01T11:22:49.461Z,100651.91
2019-03-01T11:25:22.888Z,100647.58
2019-03-01T11:27:51.503Z,100646.30
2019-03-01T11:30:25.514Z,100652.56
2019-03-01T11:32:53.990Z,100654.96
2019-03-01T11:35:22.507Z,100661.45
2019-03-01T11:37:50.992Z,100659.42
2019-03-01T11:40:34.063Z,100663.06
2019-03-01T11:43:02.672Z,100662.27
2019-03-01T11:45:31.131Z,100654.25
2019-03-01T11:47:59.598Z,100660.39
2019-03-01T11:50:28.089Z,100657.77
2019-03-01T11:52:56.531Z,100660.61
2019-03-01T11:55:25.047Z,100659.52
2019-03-01T11:57:53.587Z,100663.84
2019-03-01T12:00:26.126Z,100667.53
2019-03-01T12:02:54.585Z,100664.16
2019-03-01T12:05:23.073Z,100671.59
2019-03-01T12:07:51.540Z,100665.78
2019-03-01T12:10:28.644Z,100669.16
2019-03-01T12:12:57.112Z,100669.16
2019-03-01T12:15:25.712Z,100668.45
2019-03-01T12:17:54.166Z,100667.53
2019-03-01T12:20:31.315Z,100673.94
2019-03-01T12:22:59.939Z,100675.31
2019-03-01T12:25:28.399Z,100674.67
2019-03-01T12:27:56.848Z,100674.06
2019-03-01T12:30:28.060Z,100678.54
2019-03-01T12:32:56.561Z,100674.34
2019-03-01T12:35:25.071Z,100667.63
2019-03-01T12:37:53.506Z,100672.05
2019-03-01T12:40:29.670Z,100667.75
2019-03-01T12:42:58.182Z,100678.59
2019-03-01T12:45:26.651Z,100678.31
2019-03-01T12:47:55.158Z,100674.81
2019-03-01T12:50:23.628Z,100686.80
2019-03-01T12:52:52.072Z,100681.63
2019-03-01T12:55:25.663Z,100690.58
2019-03-01T12:57:54.136Z,100691.76
2019-03-01T13:00:33.445Z,100700.64
2019-03-01T13:03:05.351Z,100694.34
2019-03-01T13:05:32.102Z,100712.09
2019-03-01T13:08:00.547Z,100715.23
2019-03-01T13:10:40.365Z,100719.66
2019-03-01T13:13:08.575Z,100721.10
2019-03-01T13:15:37.244Z,100727.25
2019-03-01T13:18:05.702Z,100726.86
2019-03-01T13:20:37.267Z,100731.28
2019-03-01T13:23:08.664Z,100736.03
2019-03-01T13:25:37.128Z,100734.23
2019-03-01T13:31:01.150Z,100744.14
2019-03-01T13:33:29.594Z,100751.95
2019-03-01T13:35:59.961Z,100751.70
2019-03-01T13:38:30.393Z,100758.55
2019-03-01T13:40:58.777Z,100754.75
2019-03-01T13:43:28.653Z,100757.49
2019-03-01T13:45:57.171Z,100764.00
2019-03-01T13:48:25.606Z,100758.22
2019-03-01T13:50:54.077Z,100761.45
2019-03-01T13:53:22.899Z,100762.65
2019-03-01T13:55:51.349Z,100764.16
2019-03-01T13:58:20.456Z,100771.60
2019-03-01T14:00:49.653Z,100772.80
2019-03-01T14:03:20.795Z,100772.80
2019-03-01T14:05:51.179Z,100775.87
2019-03-01T14:08:18.653Z,100781.52
2019-03-01T14:10:47.111Z,100779.78
2019-03-01T14:13:15.777Z,100785.98
2019-03-01T14:15:44.410Z,100779.47
2019-03-01T14:18:12.861Z,100777.52
2019-03-01T14:20:41.328Z,100777.70
2019-03-01T14:23:09.776Z,100781.08
2019-03-01T14:25:38.614Z,100779.22
2019-03-01T14:28:08.505Z,100784.77
2019-03-01T14:30:36.966Z,100782.18
2019-03-01T14:33:05.424Z,100781.14
2019-03-01T14:35:33.906Z,100790.59
2019-03-01T14:38:02.380Z,100789.53
2019-03-01T14:40:30.849Z,100793.22
2019-03-01T14:42:59.296Z,100796.94
2019-03-01T14:45:32.559Z,100795.97
2019-03-01T14:48:01.500Z,100797.81
2019-03-01T14:50:33.665Z,100799.28
2019-03-01T14:53:01.262Z,100802.01
2019-03-01T14:55:38.983Z,100796.02
2019-03-01T14:58:19.018Z,100801.44
2019-03-01T15:00:53.390Z,100802.33
2019-03-01T15:03:28.080Z,100800.95
2019-03-01T15:05:56.559Z,100804.11
2019-03-01T15:08:25.000Z,100799.75
2019-03-01T15:10:53.614Z,100801.59
2019-03-01T15:13:22.074Z,100797.58
2019-03-01T15:15:50.584Z,100793.64
2019-03-01T15:18:19.059Z,100796.78
2019-03-01T15:20:47.514Z,100797.20
2019-03-01T15:23:15.946Z,100789.36
2019-03-01T15:25:47.468Z,100794.45
2019-03-01T15:28:16.659Z,100795.92
2019-03-01T15:30:46.430Z,100801.61
2019-03-01T15:33:15.113Z,100811.27
2019-03-01T15:35:43.601Z,100814.82
2019-03-01T15:38:12.040Z,100814.44
2019-03-01T15:40:40.492Z,100820.56
2019-03-01T15:43:09.200Z,100828.40
2019-03-01T15:45:39.875Z,100824.27
2019-03-01T15:48:08.010Z,100819.05
2019-03-01T15:50:36.696Z,100828.97
2019-03-01T15:53:05.148Z,100838.16
2019-03-01T15:55:33.787Z,100838.95
2019-03-01T15:58:02.230Z,100844.27
2019-03-01T16:00:30.687Z,100842.48
2019-03-01T16:02:59.126Z,100850.23
2019-03-01T16:05:27.659Z,100847.72
2019-03-01T16:07:56.143Z,100852.02
2019-03-01T16:10:24.639Z,100847.11
2019-03-01T16:12:53.099Z,100865.88
2019-03-01T16:15:21.578Z,100869.88
2019-03-01T16:17:50.046Z,100865.03
2019-03-01T16:20:19.938Z,100867.14
2019-03-01T16:22:51.090Z,100872.77
2019-03-01T16:25:20.643Z,100872.14
2019-03-01T16:27:50.752Z,100880.06
2019-03-01T16:30:20.791Z,100881.36
2019-03-01T16:32:50.620Z,100881.89
2019-03-01T16:35:20.427Z,100890.50
2019-03-01T16:37:50.582Z,100889.46
2019-03-01T16:40:20.591Z,100893.99
2019-03-01T16:42:54.132Z,100898.72
2019-03-01T16:45:21.161Z,100897.73
2019-03-01T16:47:50.431Z,100897.86
2019-03-01T16:50:20.311Z,100900.19
2019-03-01T16:52:48.760Z,100905.28
2019-03-01T16:55:19.647Z,100908.88
2019-03-01T16:57:51.874Z,100906.70
2019-03-01T17:00:19.747Z,100913.42
2019-03-01T17:02:49.825Z,100914.31
2019-03-01T17:05:18.257Z,100918.02
2019-03-01T17:07:46.806Z,100919.45
2019-03-01T17:10:20.158Z,100924.46
2019-03-01T17:12:48.891Z,100929.11
2019-03-01T17:15:23.747Z,100930.97
2019-03-01T17:17:52.200Z,100929.78
2019-03-01T17:20:20.645Z,100933.05
2019-03-01T17:22:49.907Z,100941.61
2019-03-01T17:25:19.546Z,100941.77
2019-03-01T17:27:49.621Z,100935.52
2019-03-01T17:30:21.071Z,100938.87
2019-03-01T17:32:49.577Z,100945.73
2019-03-01T17:35:18.199Z,100952.41
2019-03-01T17:37:46.647Z,100956.20
2019-03-01T17:40:19.873Z,100953.94
2019-03-01T17:42:48.541Z,100962.32
2019-03-01T17:45:22.238Z,100966.34
2019-03-01T17:47:50.849Z,100968.09
2019-03-01T17:50:19.369Z,100974.79
2019-03-01T17:52:47.798Z,100974.69
2019-03-01T17:55:24.630Z,100975.36
2019-03-01T17:57:53.289Z,100983.23
2019-03-01T18:00:43.609Z,100985.29
2019-03-01T18:03:12.617Z,100986.27
2019-03-01T18:05:41.530Z,100992.06
2019-03-01T18:08:10.081Z,100996.17
2019-03-01T18:10:38.527Z,101002.27
2019-03-01T18:13:07.057Z,101001.43
2019-03-01T18:15:35.499Z,101006.22
2019-03-01T18:18:04.116Z,101013.44
2019-03-01T18:20:33.973Z,101008.89
2019-03-01T18:23:03.183Z,101011.54
2019-03-01T18:25:31.805Z,101018.67
2019-03-01T18:28:00.279Z,101016.27
2019-03-01T18:30:31.022Z,101017.69
2019-03-01T18:32:59.448Z,101024.47
2019-03-01T18:35:27.931Z,101027.73
2019-03-01T18:37:56.386Z,101028.41
2019-03-01T18:40:24.850Z,101033.42
2019-03-01T18:42:53.363Z,101041.59
2019-03-01T18:45:23.170Z,101046.92
2019-03-01T18:47:51.611Z,101044.34
2019-03-01T18:50:27.658Z,101056.78
2019-03-01T18:52:55.946Z,101060.92
2019-03-01T18:55:24.402Z,101061.39
2019-03-01T18:57:52.877Z,101068.75
2019-03-01T19:00:32.541Z,101071.02
2019-03-01T19:03:00.982Z,101076.00
2019-03-01T19:05:31.931Z,101080.98
2019-03-01T19:08:00.925Z,101082.80
2019-03-01T19:10:30.657Z,101088.59
2019-03-01T19:12:59.127Z,101085.09
2019-03-01T19:15:27.548Z,101097.22
2019-03-01T19:17:56.252Z,101106.66
2019-03-01T19:20:27.817Z,101101.66
2019-03-01T19:22:56.259Z,101105.23
2019-03-01T19:25:25.465Z,101108.33
2019-03-01T19:27:55.181Z,101103.53
2019-03-01T19:30:24.936Z,101108.65
2019-03-01T19:32:53.350Z,101120.02
2019-03-01T19:35:28.574Z,101112.70
2019-03-01T19:37:51.987Z,101113.83
2019-03-01T19:40:22.747Z,101118.99
2019-03-01T19:42:51.220Z,101118.29
2019-03-01T19:45:20.311Z,101118.39
2019-03-01T19:47:48.983Z,101124.54
2019-03-01T19:50:25.007Z,101118.70
2019-03-01T19:52:53.345Z,101125.77
2019-03-01T19:55:21.844Z,101128.81
2019-03-01T19:57:50.296Z,101124.66
2019-03-01T20:00:20.564Z,101128.17
2019-03-01T20:02:49.051Z,101132.67
2019-03-01T20:05:20.271Z,101134.55
2019-03-01T20:07:51.840Z,101135.25
2019-03-01T20:10:19.231Z,101132.45
2019-03-01T20:12:47.655Z,101135.54
2019-03-01T20:15:24.432Z,101142.27
2019-03-01T20:17:53.530Z,101141.46
2019-03-01T20:20:23.847Z,101148.52
2019-03-01T20:22:54.349Z,101152.86
2019-03-01T20:25:22.522Z,101148.30
2019-03-01T20:27:51.142Z,101158.30
2019-03-01T20:30:30.698Z,101158.12
2019-03-01T20:32:59.300Z,101151.39
2019-03-01T20:35:28.619Z,101160.11
2019-03-01T20:38:00.229Z,101154.45
2019-03-01T20:40:28.251Z,101162.97
2019-03-01T20:43:00.525Z,101173.94
2019-03-01T20:45:31.807Z,101163.97
2019-03-01T20:48:00.277Z,101162.86
2019-03-01T20:50:28.875Z,101165.44
2019-03-01T20:52:57.309Z,101164.96
2019-03-01T20:55:25.733Z,101171.77
2019-03-01T20:57:54.192Z,101170.18
2019-03-01T21:00:26.167Z,101174.63
2019-03-01T21:02:55.155Z,101173.45
2019-03-01T21:05:24.964Z,101178.42
2019-03-01T21:07:54.869Z,101176.03
2019-03-01T21:10:24.693Z,101174.05
2019-03-01T21:12:53.177Z,101172.57
2019-03-01T21:15:22.076Z,101176.33
2019-03-01T21:17:53.061Z,101176.21
2019-03-01T21:20:21.115Z,101174.92
2019-03-01T21:22:49.578Z,101180.39
2019-03-01T21:25:24.023Z,101176.91
2019-03-01T21:27:52.543Z,101175.03
2019-03-01T21:30:29.723Z,101182.36
2019-03-01T21:32:58.258Z,101176.84
2019-03-01T21:35:26.699Z,101182.47
2019-03-01T21:37:55.228Z,101175.14
2019-03-01T21:40:23.670Z,101184.56
2019-03-01T21:42:52.764Z,101187.21
2019-03-01T21:45:23.929Z,101189.78
2019-03-01T21:47:52.359Z,101191.07
2019-03-01T21:50:21.030Z,101193.45
2019-03-01T21:52:49.462Z,101191.88
2019-03-01T21:55:28.927Z,101194.55
2019-03-01T21:57:58.983Z,101196.24
2019-03-01T22:00:31.210Z,101195.73
2019-03-01T22:02:59.561Z,101191.06
2019-03-01T22:05:27.999Z,101195.15
2019-03-01T22:07:56.425Z,101196.03
2019-03-01T22:10:24.895Z,101202.47
2019-03-01T22:12:53.329Z,101204.83
2019-03-01T22:15:27.104Z,101199.38
2019-03-01T22:17:56.235Z,101202.35
2019-03-01T22:20:24.840Z,101200.77
2019-03-01T22:22:53.376Z,101195.73
2019-03-01T22:25:21.819Z,101195.55
2019-03-01T22:27:50.256Z,101195.63
2019-03-01T22:30:34.680Z,101197.91
2019-03-01T22:33:03.135Z,101196.92
2019-03-01T22:35:31.562Z,101193.56
2019-03-01T22:38:01.089Z,101200.00
2019-03-01T22:40:30.229Z,101197.20
2019-03-01T22:42:58.658Z,101194.86
2019-03-01T22:45:27.143Z,101197.32
2019-03-01T22:47:55.662Z,101192.06
2019-03-01T22:50:24.109Z,101191.98
2019-03-01T22:52:52.592Z,101197.02
2019-03-01T22:55:21.477Z,101194.45
2019-03-01T22:57:49.910Z,101204.56
2019-03-01T23:00:48.165Z,101197.91
2019-03-01T23:03:18.824Z,101203.64
2019-03-01T23:05:48.069Z,101212.07
2019-03-01T23:08:16.534Z,101216.63
2019-03-01T23:10:44.977Z,101209.48
2019-03-01T23:13:16.987Z,101214.74
2019-03-01T23:15:44.561Z,101218.20
2019-03-01T23:18:13.089Z,101215.64
2019-03-01T23:20:41.790Z,101221.48
2019-03-01T23:23:10.244Z,101213.03
2019-03-01T23:25:38.683Z,101211.39
2019-03-01T23:28:09.336Z,101212.35
2019-03-01T23:30:37.850Z,101210.69
2019-03-01T23:33:06.280Z,101207.61
2019-03-01T23:35:34.880Z,101212.28
2019-03-01T23:38:03.363Z,101208.72
2019-03-01T23:40:32.692Z,101215.25
2019-03-01T23:43:01.968Z,101207.13
2019-03-01T23:45:30.423Z,101215.04
2019-03-01T23:47:58.878Z,101213.94
2019-03-01T23:50:27.390Z,101217.61
2019-03-01T23:52:58.754Z,101218.80
2019-03-01T23:55:26.028Z,101214.75
2019-03-01T23:57:54.491Z,101219.39
